createdAt,value
2023-02-06T00:01:40.979Z,4.93
2023-02-06T00:04:08.305Z,4.93
2023-02-06T00:06:37.997Z,4.95
2023-02-06T00:09:06.417Z,5.02
2023-02-06T00:11:34.075Z,5.03
2023-02-06T00:14:01.586Z,5.02
2023-02-06T00:16:32.142Z,4.99
2023-02-06T00:19:00.101Z,5.04
2023-02-06T00:21:28.700Z,5.05
2023-02-06T00:23:57.969Z,5.01
2023-02-06T00:26:25.778Z,4.97
2023-02-06T00:28:56.142Z,4.99
2023-02-06T00:31:25.067Z,4.91
2023-02-06T00:33:52.431Z,4.95
2023-02-06T00:36:19.954Z,4.98
2023-02-06T00:38:47.309Z,4.99
2023-02-06T00:41:17.375Z,4.94
2023-02-06T00:43:44.668Z,4.98
2023-02-06T00:46:12.330Z,5.04
2023-02-06T00:48:39.703Z,5.02
2023-02-06T00:51:07.022Z,5.03
2023-02-06T00:53:37.560Z,5.01
2023-02-06T00:56:05.183Z,4.99
2023-02-06T00:58:32.536Z,5.02
2023-02-06T01:00:59.865Z,5.04
2023-02-06T01:03:27.612Z,5.04
2023-02-06T01:05:55.022Z,5.00
2023-02-06T01:08:22.498Z,4.98
2023-02-06T01:10:52.221Z,4.95
2023-02-06T01:13:19.539Z,4.95
2023-02-06T01:15:46.932Z,4.96
2023-02-06T01:18:14.310Z,4.99
2023-02-06T01:20:41.731Z,5.03
2023-02-06T01:23:09.223Z,4.98
2023-02-06T01:25:39.733Z,5.03
2023-02-06T01:28:07.094Z,5.04
2023-02-06T01:30:34.517Z,5.01
2023-02-06T01:33:01.845Z,5.05
2023-02-06T01:35:29.780Z,5.01
2023-02-06T01:37:57.101Z,5.02
2023-02-06T01:40:24.513Z,4.99
2023-02-06T01:42:51.833Z,4.91
2023-02-06T01:45:36.452Z,4.95
2023-02-06T01:48:08.332Z,4.90
2023-02-06T01:50:36.911Z,4.90
2023-02-06T01:53:06.482Z,4.92
2023-02-06T01:55:37.791Z,4.98
2023-02-06T01:58:05.997Z,4.97
2023-02-06T02:00:33.532Z,4.97
2023-02-06T02:03:01.681Z,4.96
2023-02-06T02:05:33.107Z,4.99
2023-02-06T02:08:14.759Z,4.96
2023-02-06T02:10:42.556Z,4.98
2023-02-06T02:13:10.206Z,4.98
2023-02-06T02:16:00.816Z,4.98
2023-02-06T02:18:58.985Z,4.98
2023-02-06T02:21:35.112Z,4.90
2023-02-06T02:24:11.457Z,4.99
2023-02-06T02:26:39.849Z,4.91
2023-02-06T02:29:21.132Z,4.89
2023-02-06T02:31:48.446Z,4.93
2023-02-06T02:34:56.256Z,4.92
2023-02-06T02:37:23.585Z,4.92
2023-02-06T02:40:01.545Z,4.91
2023-02-06T02:42:59.709Z,4.87
2023-02-06T02:45:40.476Z,4.91
2023-02-06T02:48:14.189Z,4.83
2023-02-06T02:50:42.152Z,4.89
2023-02-06T02:53:11.043Z,4.86
2023-02-06T02:55:41.693Z,4.85
2023-02-06T02:58:13.361Z,4.89
2023-02-06T03:00:47.500Z,4.90
2023-02-06T03:03:18.084Z,4.82
2023-02-06T03:06:03.296Z,4.86
2023-02-06T03:08:33.609Z,4.88
2023-02-06T03:11:12.820Z,4.80
2023-02-06T03:14:03.920Z,4.76
2023-02-06T03:16:38.402Z,4.72
2023-02-06T03:19:13.778Z,4.61
2023-02-06T03:21:42.203Z,4.51
2023-02-06T03:24:19.902Z,4.44
2023-02-06T03:26:52.858Z,4.47
2023-02-06T03:29:20.688Z,4.38
2023-02-06T03:31:58.125Z,4.36
2023-02-06T03:34:35.059Z,4.28
2023-02-06T03:37:02.399Z,4.14
2023-02-06T03:39:32.161Z,4.06
2023-02-06T03:42:01.352Z,4.08
2023-02-06T03:44:33.611Z,4.20
2023-02-06T03:47:02.995Z,4.15
2023-02-06T03:49:32.673Z,4.03
2023-02-06T03:52:07.823Z,3.98
2023-02-06T03:54:39.351Z,4.07
2023-02-06T03:57:11.612Z,4.06
2023-02-06T03:59:39.026Z,4.07
2023-02-06T04:02:07.066Z,4.09
2023-02-06T04:04:38.744Z,4.32
2023-02-06T04:07:15.759Z,4.31
2023-02-06T04:09:43.272Z,4.40
2023-02-06T04:12:10.685Z,4.41
2023-02-06T04:14:38.264Z,4.26
2023-02-06T04:17:06.117Z,4.30
2023-02-06T04:19:34.222Z,4.37
2023-02-06T04:22:01.837Z,4.29
2023-02-06T04:24:30.921Z,4.25
2023-02-06T04:26:59.182Z,4.30
2023-02-06T04:29:26.596Z,4.24
2023-02-06T04:31:56.029Z,4.17
2023-02-06T04:34:23.425Z,4.24
2023-02-06T04:36:50.696Z,4.20
2023-02-06T04:39:18.089Z,4.14
2023-02-06T04:41:45.399Z,4.07
2023-02-06T04:44:12.790Z,4.27
2023-02-06T04:46:40.157Z,4.03
2023-02-06T04:49:07.497Z,3.89
2023-02-06T04:51:38.029Z,3.76
2023-02-06T04:54:05.885Z,3.81
2023-02-06T04:56:33.508Z,3.78
2023-02-06T04:59:01.229Z,3.80
2023-02-06T05:01:28.666Z,3.87
2023-02-06T05:03:58.628Z,3.86
2023-02-06T05:06:25.922Z,3.87
2023-02-06T05:08:53.263Z,3.79
2023-02-06T05:11:20.554Z,3.94
2023-02-06T05:13:47.936Z,3.92
2023-02-06T05:16:16.580Z,4.00
2023-02-06T05:18:47.272Z,3.94
2023-02-06T05:21:16.093Z,3.90
2023-02-06T05:23:43.432Z,3.89
2023-02-06T05:26:10.833Z,3.78
2023-02-06T05:28:38.196Z,3.89
2023-02-06T05:31:08.790Z,4.01
2023-02-06T05:33:36.305Z,4.08
2023-02-06T05:36:06.543Z,4.00
2023-02-06T05:38:36.288Z,4.00
2023-02-06T05:41:03.725Z,3.89
2023-02-06T05:43:31.088Z,3.95
2023-02-06T05:45:58.360Z,4.03
2023-02-06T05:48:28.733Z,3.89
2023-02-06T05:50:57.712Z,3.87
2023-02-06T05:53:25.208Z,3.77
2023-02-06T05:55:52.645Z,3.93
2023-02-06T05:58:20.114Z,3.95
2023-02-06T06:00:47.474Z,3.92
2023-02-06T06:03:14.846Z,3.86
2023-02-06T06:05:42.182Z,3.89
2023-02-06T06:08:09.525Z,3.90
2023-02-06T06:10:37.197Z,3.97
2023-02-06T06:13:04.612Z,3.92
2023-02-06T06:15:32.037Z,3.91
2023-02-06T06:17:59.633Z,3.98
2023-02-06T06:20:26.941Z,3.99
2023-02-06T06:22:54.239Z,3.94
2023-02-06T06:25:21.576Z,3.96
2023-02-06T06:27:48.992Z,4.03
2023-02-06T06:30:16.615Z,4.05
2023-02-06T06:32:44.088Z,4.04
2023-02-06T06:35:11.474Z,4.04
2023-02-06T06:37:38.854Z,4.07
2023-02-06T06:40:06.777Z,4.08
2023-02-06T06:42:34.216Z,4.11
2023-02-06T06:45:01.604Z,4.26
2023-02-06T06:47:28.934Z,4.16
2023-02-06T06:49:57.400Z,4.21
2023-02-06T06:52:25.853Z,4.16
2023-02-06T06:54:53.686Z,4.11
2023-02-06T06:57:22.148Z,4.17
2023-02-06T06:59:49.612Z,4.15
2023-02-06T07:02:17.590Z,4.16
2023-02-06T07:04:47.571Z,4.21
2023-02-06T07:07:14.919Z,4.21
2023-02-06T07:09:42.250Z,4.15
2023-02-06T07:12:09.613Z,4.10
2023-02-06T07:14:36.890Z,4.12
2023-02-06T07:17:04.235Z,4.21
2023-02-06T07:19:33.038Z,4.29
2023-02-06T07:22:00.372Z,4.37
2023-02-06T07:24:27.658Z,4.34
2023-02-06T07:26:55.071Z,4.27
2023-02-06T07:29:22.521Z,4.21
2023-02-06T07:31:50.122Z,4.30
2023-02-06T07:34:17.385Z,4.38
2023-02-06T07:36:44.719Z,4.33
2023-02-06T07:39:13.550Z,4.56
2023-02-06T07:41:41.102Z,4.47
2023-02-06T07:44:10.977Z,4.54
2023-02-06T07:46:38.329Z,4.55
2023-02-06T07:49:05.783Z,4.58
2023-02-06T07:51:33.180Z,4.51
2023-02-06T07:54:00.471Z,4.52
2023-02-06T07:56:27.881Z,4.51
2023-02-06T07:58:55.219Z,4.61
2023-02-06T08:01:23.601Z,4.44
2023-02-06T08:03:54.759Z,4.39
2023-02-06T08:06:24.542Z,4.51
2023-02-06T08:08:54.267Z,4.60
2023-02-06T08:11:25.189Z,4.52
2023-02-06T08:13:52.766Z,4.49
2023-02-06T08:16:22.246Z,4.68
2023-02-06T08:18:50.096Z,4.58
2023-02-06T08:21:20.824Z,4.51
2023-02-06T08:23:58.049Z,4.58
2023-02-06T08:26:27.820Z,4.66
2023-02-06T08:28:56.492Z,4.61
2023-02-06T08:31:30.740Z,4.70
2023-02-06T08:33:58.510Z,4.65
2023-02-06T08:36:27.247Z,4.55
2023-02-06T08:38:54.525Z,4.54
2023-02-06T08:41:26.047Z,4.55
2023-02-06T08:43:56.532Z,4.70
2023-02-06T08:46:26.898Z,4.66
2023-02-06T08:49:04.810Z,4.76
2023-02-06T08:51:33.665Z,4.76
2023-02-06T08:54:04.298Z,4.68
2023-02-06T08:56:33.860Z,4.81
2023-02-06T08:59:01.803Z,4.82
2023-02-06T09:01:32.142Z,4.98
2023-02-06T09:04:06.404Z,5.11
2023-02-06T09:06:38.456Z,5.04
2023-02-06T09:09:07.529Z,5.08
2023-02-06T09:11:35.705Z,4.97
2023-02-06T09:14:06.041Z,5.12
2023-02-06T09:16:34.165Z,5.03
2023-02-06T09:19:02.474Z,5.02
2023-02-06T09:21:32.776Z,4.93
2023-02-06T09:24:08.663Z,5.02
2023-02-06T09:26:58.017Z,5.12
2023-02-06T09:29:28.960Z,5.10
2023-02-06T09:31:57.482Z,5.00
2023-02-06T09:34:26.127Z,4.91
2023-02-06T09:36:57.769Z,5.07
2023-02-06T09:39:25.554Z,5.05
2023-02-06T09:42:03.136Z,5.14
2023-02-06T09:44:45.492Z,5.19
2023-02-06T09:47:32.205Z,5.02
2023-02-06T09:50:17.981Z,5.08
2023-02-06T09:53:22.577Z,5.07
2023-02-06T09:55:58.626Z,5.07
2023-02-06T09:58:56.711Z,5.10
2023-02-06T10:01:29.758Z,5.22
2023-02-06T10:04:31.873Z,5.28
2023-02-06T10:07:22.470Z,5.24
2023-02-06T10:09:56.264Z,5.22
2023-02-06T10:12:35.385Z,5.24
2023-02-06T10:15:17.040Z,5.46
2023-02-06T10:17:52.547Z,5.12
2023-02-06T10:20:33.313Z,5.35
2023-02-06T10:23:15.869Z,5.43
2023-02-06T10:26:22.148Z,5.09
2023-02-06T10:28:54.125Z,5.10
2023-02-06T10:31:21.467Z,5.03
2023-02-06T10:34:07.456Z,5.20
2023-02-06T10:36:46.279Z,5.14
2023-02-06T10:39:37.650Z,4.94
2023-02-06T10:42:21.784Z,5.04
2023-02-06T10:45:06.580Z,5.14
2023-02-06T10:47:49.481Z,5.31
2023-02-06T10:50:23.971Z,5.31
2023-02-06T10:52:52.545Z,5.32
2023-02-06T10:55:25.082Z,4.97
2023-02-06T10:58:22.499Z,5.06
2023-02-06T11:00:51.323Z,5.13
2023-02-06T11:03:26.837Z,5.01
2023-02-06T11:05:54.332Z,5.03
2023-02-06T11:08:30.062Z,5.08
2023-02-06T11:11:18.479Z,5.05
2023-02-06T11:13:48.760Z,5.05
2023-02-06T11:16:22.676Z,5.10
2023-02-06T11:18:51.319Z,5.18
2023-02-06T11:21:42.196Z,5.20
2023-02-06T11:24:15.422Z,5.13
2023-02-06T11:26:47.711Z,5.24
2023-02-06T11:29:22.578Z,5.13
2023-02-06T11:31:59.277Z,5.01
2023-02-06T11:34:44.105Z,5.11
2023-02-06T11:37:32.396Z,5.35
2023-02-06T11:40:14.804Z,5.25
2023-02-06T11:42:42.230Z,5.15
2023-02-06T11:45:31.153Z,5.24
2023-02-06T11:47:59.762Z,5.19
2023-02-06T11:50:35.356Z,5.31
2023-02-06T11:53:15.050Z,5.50
2023-02-06T11:55:43.427Z,5.41
2023-02-06T11:58:15.873Z,5.51
2023-02-06T12:00:58.954Z,5.50
2023-02-06T12:03:52.067Z,5.41
2023-02-06T12:06:38.833Z,5.43
2023-02-06T12:09:11.905Z,5.30
2023-02-06T12:12:00.451Z,5.39
2023-02-06T12:14:37.131Z,5.45
2023-02-06T12:17:20.481Z,5.34
2023-02-06T12:19:57.258Z,5.36
2023-02-06T12:22:26.752Z,5.33
2023-02-06T12:24:56.572Z,5.62
2023-02-06T12:27:44.124Z,5.74
2023-02-06T12:30:36.563Z,5.61
2023-02-06T12:33:32.335Z,5.47
2023-02-06T12:36:11.580Z,5.40
2023-02-06T12:38:55.247Z,5.60
2023-02-06T12:41:25.577Z,5.27
2023-02-06T12:44:03.230Z,5.49
2023-02-06T12:46:31.086Z,5.32
2023-02-06T12:49:21.212Z,5.70
2023-02-06T12:51:55.109Z,5.75
2023-02-06T12:54:38.745Z,5.62
2023-02-06T12:57:11.217Z,5.44
2023-02-06T12:59:58.316Z,5.40
2023-02-06T13:03:04.443Z,5.55
2023-02-06T13:05:52.610Z,5.88
2023-02-06T13:08:36.854Z,5.84
2023-02-06T13:11:08.046Z,5.88
2023-02-06T13:13:39.344Z,5.78
2023-02-06T13:16:07.960Z,6.02
2023-02-06T13:18:41.138Z,5.92
2023-02-06T13:21:22.335Z,6.16
2023-02-06T13:24:17.301Z,6.04
2023-02-06T13:26:48.883Z,6.03
2023-02-06T13:29:33.488Z,6.17
2023-02-06T13:32:18.551Z,6.21
2023-02-06T13:34:48.795Z,6.25
2023-02-06T13:37:34.303Z,6.33
2023-02-06T13:40:23.418Z,6.22
2023-02-06T13:43:11.265Z,6.33
2023-02-06T13:45:46.808Z,6.36
2023-02-06T13:48:46.704Z,6.44
2023-02-06T13:51:14.260Z,6.36
2023-02-06T13:53:56.626Z,6.25
2023-02-06T13:56:42.056Z,6.11
2023-02-06T13:59:21.743Z,6.12
2023-02-06T14:01:49.221Z,5.95
2023-02-06T14:04:25.119Z,6.05
2023-02-06T14:07:10.056Z,6.13
2023-02-06T14:10:05.196Z,6.16
2023-02-06T14:13:12.101Z,6.14
2023-02-06T14:16:21.205Z,6.20
2023-02-06T14:19:05.531Z,6.48
2023-02-06T14:21:44.486Z,6.33
2023-02-06T14:24:23.709Z,6.23
2023-02-06T14:26:50.952Z,6.26
2023-02-06T14:29:36.059Z,6.33
2023-02-06T14:32:27.565Z,6.34
2023-02-06T14:35:16.005Z,6.15
2023-02-06T14:38:10.287Z,6.07
2023-02-06T14:40:42.594Z,5.96
2023-02-06T14:43:19.982Z,5.83
2023-02-06T14:46:06.181Z,5.77
2023-02-06T14:48:44.995Z,5.75
2023-02-06T14:51:26.335Z,5.48
2023-02-06T14:53:57.137Z,5.35
2023-02-06T14:56:36.707Z,5.24
2023-02-06T14:59:13.177Z,5.38
2023-02-06T15:01:41.906Z,5.39
2023-02-06T15:04:21.943Z,5.41
2023-02-06T15:06:58.526Z,5.50
2023-02-06T15:09:43.874Z,5.22
2023-02-06T15:12:20.715Z,5.17
2023-02-06T15:15:02.686Z,5.34
2023-02-06T15:17:30.926Z,5.19
2023-02-06T15:20:32.988Z,5.25
2023-02-06T15:23:17.203Z,5.24
2023-02-06T15:26:11.361Z,5.13
2023-02-06T15:28:39.395Z,5.33
2023-02-06T15:31:19.939Z,5.22
2023-02-06T15:33:51.404Z,5.24
2023-02-06T15:36:38.988Z,5.28
2023-02-06T15:39:12.625Z,5.25
2023-02-06T15:41:42.936Z,5.13
2023-02-06T15:44:19.563Z,5.08
2023-02-06T15:46:49.276Z,5.02
2023-02-06T15:49:34.210Z,5.11
2023-02-06T15:52:04.637Z,5.00
2023-02-06T15:54:32.438Z,5.00
2023-02-06T15:57:26.894Z,4.94
2023-02-06T15:59:56.770Z,4.87
2023-02-06T16:02:37.425Z,4.86
2023-02-06T16:05:08.010Z,4.85
2023-02-06T16:07:36.448Z,4.78
2023-02-06T16:10:22.323Z,4.83
2023-02-06T16:12:50.828Z,4.79
2023-02-06T16:15:24.085Z,4.84
2023-02-06T16:17:51.628Z,4.76
2023-02-06T16:20:39.761Z,4.78
2023-02-06T16:23:26.462Z,4.73
2023-02-06T16:26:17.279Z,4.77
2023-02-06T16:28:53.532Z,4.51
2023-02-06T16:31:21.533Z,4.55
2023-02-06T16:33:51.219Z,4.56
2023-02-06T16:36:24.034Z,4.54
2023-02-06T16:39:03.250Z,4.53
2023-02-06T16:41:39.477Z,4.44
2023-02-06T16:44:13.118Z,4.63
2023-02-06T16:46:40.874Z,4.49
2023-02-06T16:49:16.370Z,4.44
2023-02-06T16:51:45.916Z,4.62
2023-02-06T16:54:23.256Z,4.36
2023-02-06T16:56:51.597Z,4.36
2023-02-06T16:59:19.496Z,4.34
2023-02-06T17:01:47.280Z,4.33
2023-02-06T17:04:14.969Z,4.21
2023-02-06T17:06:44.993Z,4.26
2023-02-06T17:09:13.989Z,4.31
2023-02-06T17:11:41.413Z,4.30
2023-02-06T17:14:09.853Z,4.25
2023-02-06T17:16:37.465Z,4.16
2023-02-06T17:19:05.316Z,4.09
2023-02-06T17:21:33.248Z,4.16
2023-02-06T17:24:01.632Z,4.12
2023-02-06T17:26:29.121Z,3.99
2023-02-06T17:28:56.540Z,4.02
2023-02-06T17:31:24.040Z,4.00
2023-02-06T17:33:51.423Z,3.99
2023-02-06T17:36:26.838Z,3.88
2023-02-06T17:38:54.196Z,3.97
2023-02-06T17:41:21.521Z,4.01
2023-02-06T17:43:48.929Z,3.79
2023-02-06T17:46:17.501Z,3.86
2023-02-06T17:48:46.157Z,3.86
2023-02-06T17:51:14.049Z,3.79
2023-02-06T17:53:41.397Z,3.73
2023-02-06T17:56:12.915Z,3.60
2023-02-06T17:58:41.361Z,3.52
2023-02-06T18:01:17.405Z,3.51
2023-02-06T18:03:46.937Z,3.49
2023-02-06T18:06:15.443Z,3.59
2023-02-06T18:08:43.755Z,3.47
2023-02-06T18:11:13.821Z,3.42
2023-02-06T18:13:42.660Z,3.21
2023-02-06T18:16:15.123Z,3.29
2023-02-06T18:18:43.062Z,3.20
2023-02-06T18:21:10.491Z,3.20
2023-02-06T18:23:38.607Z,3.27
2023-02-06T18:26:08.703Z,3.21
2023-02-06T18:28:37.116Z,3.15
2023-02-06T18:31:05.359Z,3.21
2023-02-06T18:33:35.165Z,3.19
2023-02-06T18:36:06.885Z,3.13
2023-02-06T18:38:34.556Z,3.21
2023-02-06T18:41:04.319Z,3.09
2023-02-06T18:43:32.240Z,3.13
2023-02-06T18:46:06.974Z,3.08
2023-02-06T18:48:34.327Z,3.02
2023-02-06T18:51:06.829Z,2.97
2023-02-06T18:53:34.178Z,2.95
2023-02-06T18:56:01.849Z,2.82
2023-02-06T18:58:29.219Z,2.80
2023-02-06T19:00:56.515Z,2.95
2023-02-06T19:03:23.898Z,2.87
2023-02-06T19:05:51.202Z,2.81
2023-02-06T19:08:19.614Z,2.69
2023-02-06T19:10:46.975Z,2.75
2023-02-06T19:13:14.443Z,2.82
2023-02-06T19:15:41.739Z,2.84
2023-02-06T19:18:10.728Z,2.94
2023-02-06T19:20:41.419Z,2.82
2023-02-06T19:23:08.756Z,2.81
2023-02-06T19:25:36.058Z,2.78
2023-02-06T19:28:03.455Z,2.65
2023-02-06T19:30:32.197Z,2.64
2023-02-06T19:32:59.628Z,2.59
2023-02-06T19:35:28.391Z,2.56
2023-02-06T19:37:58.715Z,2.71
2023-02-06T19:40:26.045Z,2.70
2023-02-06T19:42:53.658Z,2.73
2023-02-06T19:45:21.066Z,2.65
2023-02-06T19:47:48.381Z,2.83
2023-02-06T19:50:15.817Z,2.69
2023-02-06T19:52:43.164Z,2.88
2023-02-06T19:55:13.484Z,2.78
2023-02-06T19:57:40.828Z,2.78
2023-02-06T20:00:08.972Z,2.76
2023-02-06T20:02:37.560Z,2.87
2023-02-06T20:05:05.112Z,2.83
2023-02-06T20:07:32.540Z,2.87
2023-02-06T20:09:59.932Z,2.82
2023-02-06T20:12:27.292Z,2.83
2023-02-06T20:14:54.671Z,2.82
2023-02-06T20:17:25.426Z,2.87
2023-02-06T20:19:53.790Z,2.97
2023-02-06T20:22:21.187Z,2.94
2023-02-06T20:24:48.474Z,3.10
2023-02-06T20:27:16.883Z,3.13
2023-02-06T20:29:45.835Z,3.00
2023-02-06T20:32:15.597Z,2.99
2023-02-06T20:34:42.912Z,3.03
2023-02-06T20:37:10.221Z,2.99
2023-02-06T20:39:37.828Z,3.00
2023-02-06T20:42:05.204Z,2.96
2023-02-06T20:44:32.536Z,3.07
2023-02-06T20:46:59.934Z,3.05
2023-02-06T20:49:28.741Z,2.93
2023-02-06T20:51:56.434Z,2.89
2023-02-06T20:54:25.055Z,2.95
2023-02-06T20:56:52.582Z,2.82
2023-02-06T20:59:21.051Z,2.79
2023-02-06T21:01:48.456Z,2.89
2023-02-06T21:04:17.540Z,2.99
2023-02-06T21:06:45.945Z,2.87
2023-02-06T21:09:13.874Z,2.85
2023-02-06T21:11:49.513Z,2.70
2023-02-06T21:14:17.716Z,2.86
2023-02-06T21:16:45.140Z,2.82
2023-02-06T21:19:14.885Z,2.83
2023-02-06T21:21:45.599Z,2.83
2023-02-06T21:24:14.446Z,2.70
2023-02-06T21:26:42.157Z,2.68
2023-02-06T21:29:10.732Z,2.74
2023-02-06T21:31:38.955Z,2.72
2023-02-06T21:34:19.037Z,2.73
2023-02-06T21:36:46.871Z,2.66
2023-02-06T21:39:17.266Z,2.78
2023-02-06T21:41:45.247Z,2.76
2023-02-06T21:44:12.670Z,2.79
2023-02-06T21:46:40.352Z,2.67
2023-02-06T21:49:09.283Z,2.59
2023-02-06T21:51:36.546Z,2.57
2023-02-06T21:54:04.118Z,2.69
2023-02-06T21:56:31.532Z,2.66
2023-02-06T21:58:58.883Z,2.62
2023-02-06T22:01:29.217Z,2.69
2023-02-06T22:03:58.017Z,2.71
2023-02-06T22:06:26.909Z,2.73
2023-02-06T22:08:56.513Z,2.71
2023-02-06T22:11:26.396Z,2.60
2023-02-06T22:13:58.759Z,2.53
2023-02-06T22:16:26.956Z,2.40
2023-02-06T22:18:55.493Z,2.52
2023-02-06T22:21:25.456Z,2.35
2023-02-06T22:23:55.461Z,2.36
2023-02-06T22:26:23.117Z,2.36
2023-02-06T22:28:50.828Z,2.29
2023-02-06T22:31:22.565Z,2.28
2023-02-06T22:33:50.243Z,2.54
2023-02-06T22:36:23.516Z,2.39
2023-02-06T22:38:57.136Z,2.32
2023-02-06T22:41:24.441Z,2.28
2023-02-06T22:43:51.981Z,2.38
2023-02-06T22:46:28.496Z,2.39
2023-02-06T22:48:55.973Z,2.27
2023-02-06T22:51:23.482Z,2.41
2023-02-06T22:53:51.161Z,2.47
2023-02-06T22:56:27.275Z,2.49
2023-02-06T22:58:56.578Z,2.57
2023-02-06T23:01:27.677Z,2.41
2023-02-06T23:03:56.081Z,2.41
2023-02-06T23:06:24.024Z,2.39
2023-02-06T23:08:51.554Z,2.45
2023-02-06T23:11:19.430Z,2.39
2023-02-06T23:13:46.712Z,2.24
2023-02-06T23:16:14.095Z,2.21
2023-02-06T23:18:41.357Z,2.30
2023-02-06T23:21:10.862Z,2.15
2023-02-06T23:23:39.504Z,1.98
2023-02-06T23:26:10.331Z,2.00
2023-02-06T23:28:38.601Z,2.14
2023-02-06T23:31:06.847Z,2.07
2023-02-06T23:33:34.546Z,2.09
2023-02-06T23:36:07.034Z,2.08
2023-02-06T23:38:34.523Z,2.13
2023-02-06T23:41:13.278Z,1.99
2023-02-06T23:43:41.006Z,2.00
2023-02-06T23:46:11.981Z,2.11
2023-02-06T23:48:39.954Z,2.08
2023-02-06T23:51:07.404Z,2.01
2023-02-06T23:53:35.078Z,1.98
2023-02-06T23:56:09.336Z,1.93
2023-02-06T23:58:36.771Z,1.95
